createdAt,value
2023-04-20T00:00:25.487Z,411
2023-04-20T00:01:26.669Z,403
2023-04-20T00:02:23.561Z,404
2023-04-20T00:03:23.829Z,407
2023-04-20T00:04:23.444Z,408
2023-04-20T00:05:23.931Z,409
2023-04-20T00:06:24.084Z,394
2023-04-20T00:07:23.984Z,398
2023-04-20T00:08:24.099Z,404
2023-04-20T00:09:23.866Z,402
2023-04-20T00:10:24.006Z,403
2023-04-20T00:11:23.956Z,397
2023-04-20T00:12:23.947Z,402
2023-04-20T00:13:24.151Z,407
2023-04-20T00:14:23.814Z,404
2023-04-20T00:15:24.286Z,411
2023-04-20T00:16:37.691Z,413
2023-04-20T00:17:23.711Z,414
2023-04-20T00:18:23.837Z,411
2023-04-20T00:19:23.630Z,414
2023-04-20T00:20:23.777Z,416
2023-04-20T00:21:23.957Z,407
2023-04-20T00:22:24.150Z,416
2023-04-20T00:23:24.304Z,415
2023-04-20T00:24:23.769Z,412
2023-04-20T00:25:24.093Z,413
2023-04-20T00:26:23.893Z,415
2023-04-20T00:27:23.892Z,411
2023-04-20T00:28:23.965Z,418
2023-04-20T00:29:23.710Z,399
2023-04-20T00:30:24.490Z,403
2023-04-20T00:31:23.934Z,409
2023-04-20T00:32:24.021Z,414
2023-04-20T00:33:24.270Z,410
2023-04-20T00:34:23.596Z,407
2023-04-20T00:35:23.991Z,406
2023-04-20T00:36:23.545Z,401
2023-04-20T00:37:23.803Z,404
2023-04-20T00:38:24.086Z,410
2023-04-20T00:40:24.047Z,407
2023-04-20T00:42:23.952Z,417
2023-04-20T00:43:24.322Z,424
2023-04-20T00:44:23.626Z,412
2023-04-20T00:45:24.357Z,411
2023-04-20T00:46:23.847Z,410
2023-04-20T00:47:24.266Z,414
2023-04-20T00:48:23.649Z,416
2023-04-20T00:49:23.805Z,407
2023-04-20T00:50:24.090Z,406
2023-04-20T00:51:23.952Z,412
2023-04-20T00:52:24.161Z,399
2023-04-20T00:53:23.789Z,406
2023-04-20T00:54:23.773Z,409
2023-04-20T00:55:24.180Z,414
2023-04-20T00:56:23.674Z,416
2023-04-20T00:57:23.715Z,417
2023-04-20T00:58:24.333Z,405
2023-04-20T01:00:24.749Z,412
2023-04-20T01:01:24.025Z,408
2023-04-20T01:02:23.826Z,403
2023-04-20T01:03:23.856Z,394
2023-04-20T01:04:23.890Z,403
2023-04-20T01:05:24.315Z,413
2023-04-20T01:06:23.947Z,407
2023-04-20T01:07:23.821Z,404
2023-04-20T01:08:23.968Z,402
2023-04-20T01:09:24.090Z,399
2023-04-20T01:10:24.326Z,398
2023-04-20T01:11:23.679Z,399
2023-04-20T01:12:23.760Z,398
2023-04-20T01:13:23.747Z,410
2023-04-20T01:14:24.033Z,398
2023-04-20T01:15:23.780Z,393
2023-04-20T01:16:23.662Z,398
2023-04-20T01:17:23.786Z,413
2023-04-20T01:18:23.944Z,412
2023-04-20T01:19:23.979Z,413
2023-04-20T01:20:23.909Z,410
2023-04-20T01:22:23.873Z,411
2023-04-20T01:23:24.352Z,413
2023-04-20T01:24:23.815Z,410
2023-04-20T01:25:24.120Z,408
2023-04-20T01:26:23.796Z,406
2023-04-20T01:27:23.884Z,389
2023-04-20T01:28:23.699Z,397
2023-04-20T01:29:23.666Z,401
2023-04-20T01:31:23.649Z,398
2023-04-20T01:32:23.711Z,405
2023-04-20T01:33:23.777Z,409
2023-04-20T01:34:24.025Z,416
2023-04-20T01:35:24.202Z,420
2023-04-20T01:36:23.633Z,410
2023-04-20T01:37:23.386Z,412
2023-04-20T01:38:24.683Z,414
2023-04-20T01:39:24.160Z,403
2023-04-20T01:40:23.813Z,405
2023-04-20T01:41:23.772Z,412
2023-04-20T01:42:24.065Z,407
2023-04-20T01:43:23.729Z,409
2023-04-20T01:44:23.711Z,408
2023-04-20T01:45:23.918Z,400
2023-04-20T01:46:23.702Z,413
2023-04-20T01:47:23.798Z,423
2023-04-20T01:48:24.209Z,415
2023-04-20T01:49:23.630Z,412
2023-04-20T01:50:24.024Z,406
2023-04-20T01:51:23.812Z,411
2023-04-20T01:52:23.880Z,412
2023-04-20T01:53:23.796Z,411
2023-04-20T01:54:24.072Z,418
2023-04-20T01:55:24.030Z,411
2023-04-20T01:56:23.776Z,402
2023-04-20T01:57:23.783Z,396
2023-04-20T01:58:24.293Z,405
2023-04-20T01:59:23.474Z,413
2023-04-20T02:00:24.600Z,422
2023-04-20T02:01:23.906Z,420
2023-04-20T02:02:23.875Z,411
2023-04-20T02:03:24.049Z,404
2023-04-20T02:04:23.659Z,392
2023-04-20T02:05:23.709Z,385
2023-04-20T02:06:23.787Z,396
2023-04-20T02:07:24.307Z,399
2023-04-20T02:08:23.970Z,390
2023-04-20T02:09:24.073Z,401
2023-04-20T02:10:23.728Z,404
2023-04-20T02:11:23.619Z,398
2023-04-20T02:12:24.108Z,393
2023-04-20T02:13:23.536Z,390
2023-04-20T02:14:23.995Z,392
2023-04-20T02:15:23.921Z,402
2023-04-20T02:16:24.182Z,408
2023-04-20T02:17:23.945Z,403
2023-04-20T02:18:23.999Z,401
2023-04-20T02:19:23.839Z,412
2023-04-20T02:20:24.120Z,397
2023-04-20T02:21:23.635Z,398
2023-04-20T02:22:23.777Z,391
2023-04-20T02:23:23.868Z,395
2023-04-20T02:24:23.451Z,408
2023-04-20T02:25:23.734Z,412
2023-04-20T02:26:23.664Z,406
2023-04-20T02:27:23.631Z,400
2023-04-20T02:28:23.577Z,392
2023-04-20T02:29:32.045Z,389
2023-04-20T02:30:23.991Z,400
2023-04-20T02:31:31.659Z,404
2023-04-20T02:32:23.923Z,392
2023-04-20T02:33:23.867Z,389
2023-04-20T02:34:23.736Z,402
2023-04-20T02:35:23.948Z,396
2023-04-20T02:36:23.632Z,390
2023-04-20T02:37:23.657Z,394
2023-04-20T02:38:23.732Z,409
2023-04-20T02:39:23.662Z,395
2023-04-20T02:40:24.141Z,386
2023-04-20T02:41:23.391Z,379
2023-04-20T02:42:24.043Z,378
2023-04-20T02:43:23.844Z,385
2023-04-20T02:44:23.866Z,387
2023-04-20T02:46:23.659Z,385
2023-04-20T02:47:23.564Z,394
2023-04-20T02:49:23.693Z,395
2023-04-20T02:50:23.837Z,405
2023-04-20T02:51:23.917Z,399
2023-04-20T02:52:24.049Z,398
2023-04-20T02:53:23.989Z,393
2023-04-20T02:54:24.095Z,391
2023-04-20T02:57:23.626Z,393
2023-04-20T02:58:23.944Z,391
2023-04-20T02:59:24.163Z,388
2023-04-20T03:00:24.763Z,377
2023-04-20T03:01:24.417Z,384
2023-04-20T03:02:24.179Z,387
2023-04-20T03:03:23.974Z,382
2023-04-20T03:04:23.807Z,383
2023-04-20T03:05:23.938Z,388
2023-04-20T03:07:23.950Z,395
2023-04-20T03:08:24.360Z,387
2023-04-20T03:09:23.761Z,391
2023-04-20T03:10:24.243Z,395
2023-04-20T03:11:23.791Z,397
2023-04-20T03:12:23.960Z,392
2023-04-20T03:13:23.977Z,397
2023-04-20T03:14:23.808Z,401
2023-04-20T03:15:23.805Z,397
2023-04-20T03:16:23.947Z,396
2023-04-20T03:17:23.966Z,400
2023-04-20T03:18:24.159Z,394
2023-04-20T03:19:24.115Z,385
2023-04-20T03:20:24.023Z,387
2023-04-20T03:21:23.808Z,379
2023-04-20T03:22:24.112Z,392
2023-04-20T03:24:27.476Z,400
2023-04-20T03:25:24.454Z,402
2023-04-20T03:27:24.384Z,401
2023-04-20T03:28:23.915Z,391
2023-04-20T03:29:24.034Z,394
2023-04-20T03:30:24.812Z,385
2023-04-20T03:31:24.164Z,389
2023-04-20T03:32:23.945Z,392
2023-04-20T03:33:24.002Z,368
2023-04-20T03:34:23.832Z,367
2023-04-20T03:35:24.324Z,369
2023-04-20T03:36:23.921Z,373
2023-04-20T03:37:23.703Z,372
2023-04-20T03:38:24.304Z,366
2023-04-20T03:39:23.752Z,368
2023-04-20T03:40:24.412Z,369
2023-04-20T03:41:24.034Z,362
2023-04-20T03:42:23.777Z,368
2023-04-20T03:43:24.070Z,375
2023-04-20T03:44:24.015Z,370
2023-04-20T03:45:24.371Z,366
2023-04-20T03:46:24.042Z,362
2023-04-20T03:47:24.069Z,375
2023-04-20T03:48:23.660Z,379
2023-04-20T03:49:24.127Z,381
2023-04-20T03:50:23.991Z,377
2023-04-20T03:51:23.796Z,382
2023-04-20T03:52:23.922Z,372
2023-04-20T03:53:24.089Z,362
2023-04-20T03:54:23.986Z,360
2023-04-20T03:55:23.877Z,364
2023-04-20T03:56:24.088Z,365
2023-04-20T03:57:23.675Z,370
2023-04-20T03:58:23.919Z,371
2023-04-20T03:59:23.903Z,370
2023-04-20T04:00:25.539Z,377
2023-04-20T04:01:23.870Z,381
2023-04-20T04:02:24.124Z,383
2023-04-20T04:03:24.041Z,385
2023-04-20T04:04:24.473Z,382
2023-04-20T04:05:24.947Z,373
2023-04-20T04:06:23.959Z,368
2023-04-20T04:07:24.150Z,375
2023-04-20T04:08:23.798Z,367
2023-04-20T04:09:24.126Z,365
2023-04-20T04:10:23.871Z,368
2023-04-20T04:11:23.674Z,373
2023-04-20T04:12:24.629Z,371
2023-04-20T04:13:23.988Z,374
2023-04-20T04:14:24.538Z,372
2023-04-20T04:15:24.491Z,362
2023-04-20T04:16:24.317Z,369
2023-04-20T04:17:23.882Z,362
2023-04-20T04:18:24.043Z,372
2023-04-20T04:19:23.889Z,384
2023-04-20T04:20:23.679Z,381
2023-04-20T04:21:23.926Z,378
2023-04-20T04:22:23.619Z,373
2023-04-20T04:23:23.750Z,375
2023-04-20T04:25:24.659Z,374
2023-04-20T04:26:24.025Z,376
2023-04-20T04:27:23.932Z,374
2023-04-20T04:28:24.443Z,369
2023-04-20T04:29:24.127Z,379
2023-04-20T04:30:24.027Z,388
2023-04-20T04:31:23.659Z,374
2023-04-20T04:32:24.595Z,371
2023-04-20T04:33:24.010Z,373
2023-04-20T04:34:23.870Z,369
2023-04-20T04:35:24.129Z,367
2023-04-20T04:36:23.962Z,373
2023-04-20T04:37:24.000Z,380
2023-04-20T04:38:23.647Z,373
2023-04-20T04:39:24.253Z,364
2023-04-20T04:40:24.143Z,366
2023-04-20T04:41:24.075Z,367
2023-04-20T04:42:28.985Z,375
2023-04-20T04:43:24.214Z,372
2023-04-20T04:44:23.908Z,371
2023-04-20T04:45:23.712Z,377
2023-04-20T04:46:29.252Z,376
2023-04-20T04:47:24.018Z,377
2023-04-20T04:48:24.032Z,372
2023-04-20T04:49:24.068Z,370
2023-04-20T04:50:29.034Z,379
2023-04-20T04:51:24.732Z,382
2023-04-20T04:52:29.343Z,388
2023-04-20T04:53:24.354Z,377
2023-04-20T04:54:29.264Z,378
2023-04-20T04:55:24.057Z,372
2023-04-20T04:56:23.610Z,367
2023-04-20T04:57:23.943Z,366
2023-04-20T04:58:24.453Z,375
2023-04-20T05:00:25.304Z,371
2023-04-20T05:01:24.537Z,379
2023-04-20T05:02:38.669Z,377
2023-04-20T05:03:24.033Z,373
2023-04-20T05:04:24.318Z,366
2023-04-20T05:05:24.329Z,368
2023-04-20T05:06:24.122Z,360
2023-04-20T05:07:23.953Z,352
2023-04-20T05:08:24.742Z,348
2023-04-20T05:09:24.225Z,362
2023-04-20T05:10:24.164Z,373
2023-04-20T05:11:23.950Z,371
2023-04-20T05:12:24.048Z,365
2023-04-20T05:13:24.179Z,371
2023-04-20T05:14:23.948Z,375
2023-04-20T05:15:23.944Z,376
2023-04-20T05:16:23.916Z,377
2023-04-20T05:17:24.422Z,375
2023-04-20T05:18:24.213Z,369
2023-04-20T05:19:23.957Z,367
2023-04-20T05:21:24.552Z,370
2023-04-20T05:22:24.094Z,369
2023-04-20T05:23:24.176Z,375
2023-04-20T05:24:24.197Z,378
2023-04-20T05:25:24.224Z,377
2023-04-20T05:26:24.022Z,373
2023-04-20T05:27:24.086Z,379
2023-04-20T05:28:24.021Z,374
2023-04-20T05:29:24.128Z,370
2023-04-20T05:30:46.579Z,377
2023-04-20T05:31:24.251Z,375
2023-04-20T05:32:24.133Z,371
2023-04-20T05:33:24.143Z,375
2023-04-20T05:34:23.793Z,377
2023-04-20T05:36:23.812Z,370
2023-04-20T05:37:24.028Z,372
2023-04-20T05:38:23.801Z,385
2023-04-20T05:39:24.141Z,400
2023-04-20T05:41:27.715Z,379
2023-04-20T05:42:24.493Z,384
2023-04-20T05:43:24.259Z,376
2023-04-20T05:45:24.060Z,381
2023-04-20T05:46:24.000Z,377
2023-04-20T05:47:23.879Z,368
2023-04-20T05:48:24.224Z,374
2023-04-20T05:49:23.885Z,375
2023-04-20T05:50:24.846Z,377
2023-04-20T05:53:27.691Z,379
2023-04-20T05:54:23.879Z,377
2023-04-20T05:55:24.412Z,375
2023-04-20T05:57:23.869Z,367
2023-04-20T05:59:24.019Z,370
2023-04-20T06:00:26.278Z,366
2023-04-20T06:01:23.928Z,376
2023-04-20T06:02:24.488Z,370
2023-04-20T06:03:24.412Z,371
2023-04-20T06:04:24.320Z,378
2023-04-20T06:05:24.578Z,374
2023-04-20T06:06:24.940Z,378
2023-04-20T06:07:23.802Z,371
2023-04-20T06:09:23.858Z,374
2023-04-20T06:10:24.478Z,385
2023-04-20T06:11:23.974Z,377
2023-04-20T06:12:25.709Z,376
2023-04-20T06:14:23.742Z,367
2023-04-20T06:15:24.763Z,360
2023-04-20T06:16:23.588Z,364
2023-04-20T06:18:23.697Z,374
2023-04-20T06:19:24.138Z,372
2023-04-20T06:20:23.842Z,379
2023-04-20T06:21:23.875Z,380
2023-04-20T06:22:24.073Z,384
2023-04-20T06:23:24.292Z,380
2023-04-20T06:24:24.151Z,366
2023-04-20T06:25:24.018Z,371
2023-04-20T06:26:23.859Z,375
2023-04-20T06:27:23.840Z,381
2023-04-20T06:28:24.609Z,379
2023-04-20T06:29:23.857Z,383
2023-04-20T06:30:24.749Z,384
2023-04-20T06:31:24.284Z,377
2023-04-20T06:32:23.887Z,381
2023-04-20T06:33:24.041Z,389
2023-04-20T06:34:23.782Z,380
2023-04-20T06:35:23.969Z,371
2023-04-20T06:36:23.940Z,372
2023-04-20T06:37:24.110Z,376
2023-04-20T06:38:24.052Z,378
2023-04-20T06:39:24.176Z,369
2023-04-20T06:40:24.369Z,371
2023-04-20T06:41:23.836Z,375
2023-04-20T06:42:24.088Z,366
2023-04-20T06:43:23.822Z,381
2023-04-20T06:44:24.081Z,374
2023-04-20T06:45:24.465Z,364
2023-04-20T06:46:24.059Z,370
2023-04-20T06:47:23.954Z,373
2023-04-20T06:48:30.779Z,370
2023-04-20T06:49:24.085Z,376
2023-04-20T06:50:24.249Z,380
2023-04-20T06:51:24.163Z,377
2023-04-20T06:52:24.296Z,378
2023-04-20T06:53:24.182Z,379
2023-04-20T06:54:24.199Z,369
2023-04-20T06:55:24.316Z,365
2023-04-20T06:56:24.195Z,364
2023-04-20T06:57:24.241Z,365
2023-04-20T06:58:24.044Z,377
2023-04-20T06:59:24.536Z,371
2023-04-20T07:00:25.502Z,373
2023-04-20T07:01:24.540Z,375
2023-04-20T07:02:24.401Z,362
2023-04-20T07:03:24.493Z,364
2023-04-20T07:04:23.679Z,363
2023-04-20T07:05:24.886Z,365
2023-04-20T07:06:24.247Z,370
2023-04-20T07:07:24.502Z,367
2023-04-20T07:08:24.568Z,373
2023-04-20T07:09:24.210Z,389
2023-04-20T07:10:24.588Z,379
2023-04-20T07:11:29.474Z,374
2023-04-20T07:12:24.130Z,368
2023-04-20T07:13:24.307Z,366
2023-04-20T07:14:23.964Z,378
2023-04-20T07:15:24.160Z,373
2023-04-20T07:16:24.212Z,374
2023-04-20T07:17:24.222Z,362
2023-04-20T07:18:24.021Z,366
2023-04-20T07:19:31.673Z,378
2023-04-20T07:20:24.503Z,374
2023-04-20T07:21:24.550Z,376
2023-04-20T07:22:24.363Z,378
2023-04-20T07:23:23.920Z,374
2023-04-20T07:24:24.639Z,364
2023-04-20T07:25:24.471Z,363
2023-04-20T07:27:23.637Z,367
2023-04-20T07:28:24.116Z,371
2023-04-20T07:29:24.043Z,374
2023-04-20T07:30:24.436Z,380
2023-04-20T07:31:24.749Z,382
2023-04-20T07:32:24.451Z,389
2023-04-20T07:33:24.143Z,377
2023-04-20T07:34:24.116Z,379
2023-04-20T07:36:24.157Z,381
2023-04-20T07:37:25.734Z,377
2023-04-20T07:38:23.830Z,379
2023-04-20T07:39:24.549Z,378
2023-04-20T07:40:24.102Z,382
2023-04-20T07:41:23.677Z,374
2023-04-20T07:42:23.913Z,373
2023-04-20T07:43:24.660Z,368
2023-04-20T07:44:24.229Z,373
2023-04-20T07:45:24.564Z,372
2023-04-20T07:46:24.331Z,378
2023-04-20T07:47:23.995Z,367
2023-04-20T07:48:24.042Z,363
2023-04-20T07:49:23.748Z,356
2023-04-20T07:50:24.741Z,364
2023-04-20T07:51:24.245Z,374
2023-04-20T07:52:24.387Z,373
2023-04-20T07:53:24.377Z,371
2023-04-20T07:56:24.519Z,361
2023-04-20T07:57:24.488Z,358
2023-04-20T07:58:24.531Z,359
2023-04-20T07:59:24.401Z,365
2023-04-20T08:00:25.338Z,373
2023-04-20T08:01:24.251Z,370
2023-04-20T08:02:24.296Z,367
2023-04-20T08:03:25.072Z,364
2023-04-20T08:04:24.757Z,368
2023-04-20T08:05:24.528Z,370
2023-04-20T08:06:24.367Z,359
2023-04-20T08:08:24.150Z,358
2023-04-20T08:09:23.790Z,368
2023-04-20T08:10:24.504Z,369
2023-04-20T08:11:23.953Z,381
2023-04-20T08:12:24.082Z,370
2023-04-20T08:13:24.072Z,377
2023-04-20T08:14:23.947Z,379
2023-04-20T08:15:24.446Z,374
2023-04-20T08:16:24.172Z,370
2023-04-20T08:17:24.053Z,367
2023-04-20T08:18:23.577Z,374
2023-04-20T08:19:23.945Z,375
2023-04-20T08:20:24.069Z,367
2023-04-20T08:21:25.494Z,369
2023-04-20T08:22:23.576Z,362
2023-04-20T08:23:24.269Z,369
2023-04-20T08:24:24.013Z,368
2023-04-20T08:25:25.545Z,364
2023-04-20T08:26:24.249Z,363
2023-04-20T08:27:23.765Z,361
2023-04-20T08:29:23.833Z,375
2023-04-20T08:30:24.690Z,371
2023-04-20T08:31:24.338Z,372
2023-04-20T08:32:24.224Z,382
2023-04-20T08:33:24.096Z,377
2023-04-20T08:34:24.017Z,376
2023-04-20T08:36:24.091Z,369
2023-04-20T08:37:23.784Z,370
2023-04-20T08:38:33.440Z,375
2023-04-20T08:39:24.291Z,374
2023-04-20T08:40:24.475Z,382
2023-04-20T08:41:24.222Z,374
2023-04-20T08:42:23.982Z,367
2023-04-20T08:43:24.200Z,365
2023-04-20T08:44:23.994Z,373
2023-04-20T08:45:24.661Z,365
2023-04-20T08:46:24.703Z,368
2023-04-20T08:47:24.583Z,365
2023-04-20T08:48:24.310Z,364
2023-04-20T08:49:24.033Z,361
2023-04-20T08:50:24.084Z,364
2023-04-20T08:51:24.229Z,359
2023-04-20T08:52:23.957Z,362
2023-04-20T08:53:23.690Z,367
2023-04-20T08:54:24.822Z,366
2023-04-20T08:55:23.972Z,372
2023-04-20T08:56:23.948Z,369
2023-04-20T08:57:24.596Z,371
2023-04-20T08:58:24.584Z,367
2023-04-20T08:59:24.535Z,364
2023-04-20T09:00:25.335Z,379
2023-04-20T09:01:34.401Z,371
2023-04-20T09:03:24.394Z,360
2023-04-20T09:04:25.017Z,364
2023-04-20T09:05:24.182Z,373
2023-04-20T09:06:24.356Z,360
2023-04-20T09:07:24.267Z,365
2023-04-20T09:08:24.320Z,366
2023-04-20T09:09:24.509Z,368
2023-04-20T09:10:24.222Z,365
2023-04-20T09:12:23.665Z,355
2023-04-20T09:13:24.304Z,353
2023-04-20T09:14:24.184Z,356
2023-04-20T09:15:24.553Z,362
2023-04-20T09:16:24.182Z,359
2023-04-20T09:17:24.372Z,365
2023-04-20T09:18:24.420Z,367
2023-04-20T09:19:24.131Z,373
2023-04-20T09:20:23.881Z,357
2023-04-20T09:21:24.464Z,364
2023-04-20T09:22:24.192Z,375
2023-04-20T09:23:24.425Z,378
2023-04-20T09:24:24.034Z,360
2023-04-20T09:25:24.344Z,366
2023-04-20T09:26:23.875Z,378
2023-04-20T09:27:24.331Z,369
2023-04-20T09:28:24.122Z,374
2023-04-20T09:29:23.878Z,383
2023-04-20T09:30:24.674Z,382
2023-04-20T09:31:24.358Z,368
2023-04-20T09:32:24.654Z,369
2023-04-20T09:33:24.196Z,373
2023-04-20T09:34:24.133Z,385
2023-04-20T09:35:24.511Z,377
2023-04-20T09:36:23.933Z,385
2023-04-20T09:37:24.099Z,389
2023-04-20T09:38:24.501Z,383
2023-04-20T09:39:24.287Z,374
2023-04-20T09:40:24.667Z,377
2023-04-20T09:41:24.170Z,374
2023-04-20T09:42:24.197Z,356
2023-04-20T09:43:23.884Z,361
2023-04-20T09:44:24.012Z,374
2023-04-20T09:45:24.625Z,372
2023-04-20T09:46:24.448Z,371
2023-04-20T09:47:24.340Z,374
2023-04-20T09:48:24.290Z,371
2023-04-20T09:49:24.212Z,365
2023-04-20T09:50:31.968Z,366
2023-04-20T09:51:24.281Z,360
2023-04-20T09:52:24.183Z,369
2023-04-20T09:53:23.983Z,377
2023-04-20T09:54:24.134Z,372
2023-04-20T09:55:23.971Z,379
2023-04-20T09:56:24.195Z,373
2023-04-20T09:57:24.064Z,381
2023-04-20T09:58:23.958Z,377
2023-04-20T09:59:24.336Z,384
2023-04-20T10:00:25.006Z,377
2023-04-20T10:01:24.059Z,380
2023-04-20T10:02:24.224Z,375
2023-04-20T10:03:24.697Z,363
2023-04-20T10:05:24.126Z,372
2023-04-20T10:06:23.870Z,373
2023-04-20T10:07:24.546Z,376
2023-04-20T10:08:24.343Z,373
2023-04-20T10:09:24.522Z,372
2023-04-20T10:10:43.352Z,361
2023-04-20T10:11:24.040Z,362
2023-04-20T10:12:24.453Z,366
2023-04-20T10:13:24.492Z,375
2023-04-20T10:14:24.039Z,362
2023-04-20T10:15:24.521Z,369
2023-04-20T10:16:24.074Z,374
2023-04-20T10:17:24.553Z,378
2023-04-20T10:18:24.831Z,366
2023-04-20T10:19:24.359Z,362
2023-04-20T10:20:24.577Z,359
2023-04-20T10:21:24.031Z,365
2023-04-20T10:22:24.632Z,368
2023-04-20T10:23:24.474Z,360
2023-04-20T10:24:24.556Z,359
2023-04-20T10:26:23.899Z,362
2023-04-20T10:27:24.405Z,364
2023-04-20T10:28:23.978Z,368
2023-04-20T10:29:23.909Z,361
2023-04-20T10:30:24.327Z,353
2023-04-20T10:31:24.436Z,350
2023-04-20T10:32:24.693Z,358
2023-04-20T10:33:24.370Z,357
2023-04-20T10:34:24.005Z,355
2023-04-20T10:35:24.024Z,354
2023-04-20T10:36:23.894Z,360
2023-04-20T10:37:24.104Z,361
2023-04-20T10:39:24.221Z,359
2023-04-20T10:40:24.668Z,355
2023-04-20T10:41:24.057Z,347
2023-04-20T10:42:23.950Z,339
2023-04-20T10:43:24.083Z,350
2023-04-20T10:44:23.917Z,357
2023-04-20T10:45:24.853Z,358
2023-04-20T10:47:28.148Z,353
2023-04-20T10:48:24.765Z,357
2023-04-20T10:49:23.926Z,350
2023-04-20T10:50:24.227Z,354
2023-04-20T10:51:24.021Z,362
2023-04-20T10:53:24.062Z,364
2023-04-20T10:54:24.076Z,362
2023-04-20T10:55:24.083Z,374
2023-04-20T10:56:23.803Z,379
2023-04-20T10:59:24.095Z,384
2023-04-20T11:00:25.275Z,369
2023-04-20T11:01:23.980Z,366
2023-04-20T11:02:24.197Z,352
2023-04-20T11:03:24.439Z,360
2023-04-20T11:04:24.547Z,362
2023-04-20T11:05:24.630Z,363
2023-04-20T11:06:24.280Z,364
2023-04-20T11:07:24.014Z,373
2023-04-20T11:09:25.016Z,364
2023-04-20T11:10:25.020Z,370
2023-04-20T11:11:24.282Z,364
2023-04-20T11:12:24.213Z,367
2023-04-20T11:13:26.255Z,375
2023-04-20T11:15:24.114Z,368
2023-04-20T11:16:30.453Z,367
2023-04-20T11:17:24.236Z,368
2023-04-20T11:18:24.363Z,363
2023-04-20T11:19:24.276Z,356
2023-04-20T11:20:23.974Z,360
2023-04-20T11:21:24.043Z,365
2023-04-20T11:22:24.042Z,372
2023-04-20T11:23:23.956Z,371
2023-04-20T11:24:24.063Z,368
2023-04-20T11:25:23.832Z,359
2023-04-20T11:26:24.344Z,364
2023-04-20T11:27:24.392Z,353
2023-04-20T11:28:24.286Z,355
2023-04-20T11:29:24.401Z,357
2023-04-20T11:30:24.523Z,351
2023-04-20T11:31:24.416Z,365
2023-04-20T11:32:24.089Z,357
2023-04-20T11:33:24.409Z,354
2023-04-20T11:34:24.185Z,355
2023-04-20T11:35:24.427Z,354
2023-04-20T11:36:24.502Z,357
2023-04-20T11:38:24.714Z,360
2023-04-20T11:39:23.981Z,370
2023-04-20T11:40:25.689Z,365
2023-04-20T11:41:24.294Z,347
2023-04-20T11:42:24.499Z,350
2023-04-20T11:43:24.533Z,365
2023-04-20T11:44:24.379Z,374
2023-04-20T11:45:24.416Z,364
2023-04-20T11:46:23.839Z,363
2023-04-20T11:47:24.042Z,368
2023-04-20T11:48:24.517Z,362
2023-04-20T11:49:24.415Z,363
2023-04-20T11:50:24.643Z,364
2023-04-20T11:51:24.236Z,369
2023-04-20T11:52:23.970Z,359
2023-04-20T11:54:24.684Z,354
2023-04-20T11:55:24.476Z,357
2023-04-20T11:56:24.117Z,356
2023-04-20T11:57:24.125Z,358
2023-04-20T11:58:23.761Z,356
2023-04-20T11:59:24.308Z,351
2023-04-20T12:00:24.961Z,359
2023-04-20T12:01:24.353Z,365
2023-04-20T12:02:24.367Z,366
2023-04-20T12:03:24.160Z,369
2023-04-20T12:04:24.653Z,370
2023-04-20T12:05:24.441Z,382
2023-04-20T12:06:24.256Z,370
2023-04-20T12:07:29.565Z,364
2023-04-20T12:08:24.517Z,367
2023-04-20T12:09:24.353Z,359
2023-04-20T12:10:24.314Z,360
2023-04-20T12:11:24.214Z,362
2023-04-20T12:13:24.418Z,367
2023-04-20T12:14:24.362Z,358
2023-04-20T12:15:24.496Z,361
2023-04-20T12:16:24.401Z,353
2023-04-20T12:17:24.529Z,360
2023-04-20T12:18:24.528Z,368
2023-04-20T12:19:24.830Z,366
2023-04-20T12:20:25.095Z,370
2023-04-20T12:21:23.936Z,369
2023-04-20T12:22:24.084Z,361
2023-04-20T12:23:23.973Z,367
2023-04-20T12:25:24.554Z,363
2023-04-20T12:26:31.963Z,356
2023-04-20T12:27:24.846Z,364
2023-04-20T12:28:24.003Z,359
2023-04-20T12:29:23.935Z,355
2023-04-20T12:30:25.058Z,358
2023-04-20T12:31:38.181Z,359
2023-04-20T12:32:24.146Z,372
2023-04-20T12:33:24.504Z,368
2023-04-20T12:34:24.481Z,375
2023-04-20T12:35:43.661Z,364
2023-04-20T12:36:24.027Z,357
2023-04-20T12:37:24.153Z,356
2023-04-20T12:38:24.207Z,351
2023-04-20T12:39:24.093Z,345
2023-04-20T12:40:24.309Z,347
2023-04-20T12:41:24.364Z,351
2023-04-20T12:42:24.238Z,355
2023-04-20T12:43:24.118Z,362
2023-04-20T12:44:23.934Z,365
2023-04-20T12:45:24.496Z,363
2023-04-20T12:46:24.296Z,360
2023-04-20T12:47:24.006Z,356
2023-04-20T12:48:24.055Z,359
2023-04-20T12:49:24.347Z,361
2023-04-20T12:50:24.614Z,360
2023-04-20T12:51:24.032Z,368
2023-04-20T12:52:24.078Z,371
2023-04-20T12:53:24.261Z,374
2023-04-20T12:54:24.521Z,362
2023-04-20T12:55:23.963Z,359
2023-04-20T12:57:24.217Z,364
2023-04-20T12:58:24.303Z,353
2023-04-20T12:59:24.033Z,359
2023-04-20T13:00:24.824Z,358
2023-04-20T13:01:24.357Z,354
2023-04-20T13:02:24.663Z,352
2023-04-20T13:03:24.574Z,357
2023-04-20T13:04:24.666Z,362
2023-04-20T13:05:24.847Z,363
2023-04-20T13:06:24.243Z,361
2023-04-20T13:07:24.538Z,357
2023-04-20T13:08:24.286Z,351
2023-04-20T13:09:24.132Z,356
2023-04-20T13:10:24.459Z,362
2023-04-20T13:11:24.899Z,363
2023-04-20T13:12:24.259Z,354
2023-04-20T13:13:24.297Z,353
2023-04-20T13:14:24.402Z,352
2023-04-20T13:15:35.618Z,344
2023-04-20T13:16:24.334Z,341
2023-04-20T13:17:24.470Z,357
2023-04-20T13:18:24.345Z,351
2023-04-20T13:19:24.337Z,360
2023-04-20T13:20:24.441Z,359
2023-04-20T13:21:24.526Z,352
2023-04-20T13:22:24.499Z,344
2023-04-20T13:23:24.579Z,354
2023-04-20T13:24:24.365Z,358
2023-04-20T13:25:25.111Z,359
2023-04-20T13:26:24.279Z,361
2023-04-20T13:27:24.460Z,358
2023-04-20T13:28:24.346Z,344
2023-04-20T13:30:28.676Z,349
2023-04-20T13:31:24.326Z,358
2023-04-20T13:33:24.300Z,356
2023-04-20T13:34:24.513Z,358
2023-04-20T13:35:25.076Z,359
2023-04-20T13:36:23.880Z,351
2023-04-20T13:37:24.453Z,343
2023-04-20T13:38:24.771Z,346
2023-04-20T13:39:24.375Z,347
2023-04-20T13:42:24.409Z,348
2023-04-20T13:43:24.435Z,357
2023-04-20T13:44:24.108Z,353
2023-04-20T13:45:24.394Z,362
2023-04-20T13:46:24.306Z,364
2023-04-20T13:47:24.434Z,359
2023-04-20T13:48:24.808Z,358
2023-04-20T13:49:23.894Z,369
2023-04-20T13:51:24.258Z,347
2023-04-20T13:52:24.169Z,351
2023-04-20T13:54:24.331Z,357
2023-04-20T13:55:26.808Z,369
2023-04-20T13:57:24.503Z,362
2023-04-20T13:59:24.296Z,367
2023-04-20T14:00:25.185Z,363
2023-04-20T14:02:24.393Z,354
2023-04-20T14:03:24.835Z,347
2023-04-20T14:04:24.571Z,346
2023-04-20T14:05:24.846Z,350
2023-04-20T14:06:24.047Z,343
2023-04-20T14:07:24.098Z,351
2023-04-20T14:08:24.561Z,361
2023-04-20T14:09:24.001Z,364
2023-04-20T14:10:23.897Z,363
2023-04-20T14:11:24.173Z,353
2023-04-20T14:12:24.224Z,349
2023-04-20T14:13:24.155Z,356
2023-04-20T14:14:24.241Z,359
2023-04-20T14:15:24.876Z,350
2023-04-20T14:16:24.417Z,346
2023-04-20T14:17:24.306Z,345
2023-04-20T14:18:24.119Z,351
2023-04-20T14:19:23.958Z,348
2023-04-20T14:20:24.062Z,347
2023-04-20T14:21:24.221Z,354
2023-04-20T14:23:24.535Z,361
2023-04-20T14:24:24.262Z,355
2023-04-20T14:25:24.333Z,357
2023-04-20T14:26:24.358Z,351
2023-04-20T14:27:24.166Z,348
2023-04-20T14:28:24.446Z,346
2023-04-20T14:29:24.326Z,345
2023-04-20T14:32:25.043Z,342
2023-04-20T14:33:24.108Z,351
2023-04-20T14:34:24.240Z,353
2023-04-20T14:35:24.223Z,361
2023-04-20T14:36:24.465Z,354
2023-04-20T14:37:24.333Z,357
2023-04-20T14:38:24.504Z,355
2023-04-20T14:39:24.377Z,347
2023-04-20T14:40:24.801Z,355
2023-04-20T14:41:23.972Z,362
2023-04-20T14:42:24.472Z,356
2023-04-20T14:44:24.085Z,351
2023-04-20T14:45:24.013Z,355
2023-04-20T14:46:24.308Z,363
2023-04-20T14:47:24.399Z,354